createdAt,value
2023-03-01T00:00:33.138Z,21.80
2023-03-01T00:11:07.519Z,26.30
2023-03-01T00:21:31.767Z,19.50
2023-03-01T00:31:56.105Z,21.10
2023-03-01T00:42:20.341Z,27.50
2023-03-01T00:52:44.751Z,26.50
2023-03-01T01:03:08.913Z,34.80
2023-03-01T01:13:33.899Z,27.40
2023-03-01T01:23:59.736Z,26.40
2023-03-01T01:34:24.321Z,29.80
2023-03-01T01:44:49.399Z,30.90
2023-03-01T01:55:21.371Z,33.80
2023-03-01T02:05:55.559Z,36.50
2023-03-01T02:16:20.242Z,39.00
2023-03-01T02:26:50.819Z,51.60
2023-03-01T02:37:21.953Z,43.20
2023-03-01T02:47:46.296Z,51.60
2023-03-01T02:58:10.892Z,46.10
2023-03-01T03:08:35.075Z,39.90
2023-03-01T03:19:05.401Z,37.00
2023-03-01T03:29:29.660Z,39.40
2023-03-01T03:39:55.183Z,35.10
2023-03-01T03:50:19.975Z,32.60
2023-03-01T04:00:45.428Z,33.30
2023-03-01T04:11:27.839Z,36.60
2023-03-01T04:21:52.160Z,32.60
2023-03-01T04:32:17.065Z,36.10
2023-03-01T04:42:41.340Z,32.60
2023-03-01T04:53:05.545Z,35.10
2023-03-01T05:03:29.763Z,32.10
2023-03-01T05:13:55.390Z,33.40
2023-03-01T05:24:19.628Z,40.30
2023-03-01T05:34:44.492Z,43.00
2023-03-01T05:45:11.169Z,146.80
2023-03-01T05:55:36.132Z,87.90
2023-03-01T06:06:00.548Z,52.10
2023-03-01T06:16:24.759Z,43.80
2023-03-01T06:26:48.947Z,43.50
2023-03-01T06:37:13.165Z,43.80
2023-03-01T06:47:37.435Z,44.50
2023-03-01T06:58:03.277Z,49.50
2023-03-01T07:08:27.591Z,46.20
2023-03-01T07:18:52.623Z,66.60
2023-03-01T07:29:18.492Z,50.10
2023-03-01T07:39:43.224Z,61.40
2023-03-01T07:50:10.910Z,44.30
2023-03-01T08:00:35.174Z,42.50
2023-03-01T08:11:00.795Z,32.10
2023-03-01T08:21:25.736Z,29.80
2023-03-01T08:31:50.712Z,30.50
2023-03-01T08:42:15.097Z,27.50
2023-03-01T08:52:40.160Z,24.70
2023-03-01T09:03:05.326Z,25.10
2023-03-01T09:13:31.541Z,26.50
2023-03-01T09:23:58.252Z,20.40
2023-03-01T09:34:23.643Z,11.20
2023-03-01T09:44:52.624Z,11.00
2023-03-01T09:55:27.636Z,11.70
2023-03-01T10:06:06.475Z,14.90
2023-03-01T10:27:04.123Z,15.10
2023-03-01T10:37:28.889Z,15.70
2023-03-01T10:48:06.682Z,14.70
2023-03-01T10:58:31.951Z,14.90
2023-03-01T11:08:57.410Z,14.60
2023-03-01T11:19:23.283Z,13.40
2023-03-01T11:29:53.322Z,14.20
2023-03-01T11:40:22.829Z,14.10
2023-03-01T11:50:49.237Z,15.20
2023-03-01T12:01:33.738Z,15.90
2023-03-01T12:12:13.688Z,17.90
2023-03-01T12:22:53.236Z,18.00
2023-03-01T12:33:31.035Z,18.10
2023-03-01T12:44:07.416Z,18.40
2023-03-01T12:54:34.002Z,19.60
2023-03-01T13:05:24.569Z,17.60
2023-03-01T13:15:51.711Z,17.50
2023-03-01T13:26:17.862Z,17.40
2023-03-01T13:36:50.584Z,17.40
2023-03-01T13:47:18.862Z,18.00
2023-03-01T13:57:47.398Z,16.60
2023-03-01T14:08:24.640Z,15.50
2023-03-01T14:18:57.498Z,15.50
2023-03-01T14:29:35.050Z,11.70
2023-03-01T14:40:01.380Z,13.50
2023-03-01T14:50:29.392Z,14.70
2023-03-01T15:00:56.007Z,13.70
2023-03-01T15:11:24.895Z,13.20
2023-03-01T15:32:28.687Z,9.80
2023-03-01T15:42:52.997Z,12.60
2023-03-01T15:53:18.432Z,12.80
2023-03-01T16:03:43.295Z,11.30
2023-03-01T16:14:09.555Z,14.50
2023-03-01T16:24:36.307Z,14.10
2023-03-01T16:35:00.509Z,10.50
2023-03-01T16:45:25.573Z,9.90
2023-03-01T16:55:56.574Z,10.60
2023-03-01T17:06:25.136Z,12.10
2023-03-01T17:16:49.424Z,59.70
2023-03-01T17:27:15.496Z,41.20
2023-03-01T17:37:52.829Z,27.00
2023-03-01T17:48:17.426Z,35.80
2023-03-01T17:58:42.558Z,29.30
2023-03-01T18:09:08.533Z,30.30
2023-03-01T18:19:33.923Z,22.10
2023-03-01T18:29:59.078Z,17.70
2023-03-01T18:40:24.016Z,14.80
2023-03-01T18:50:48.889Z,23.50
2023-03-01T19:01:16.222Z,18.30
2023-03-01T19:11:40.486Z,27.60
2023-03-01T19:22:06.374Z,25.30
2023-03-01T19:32:32.369Z,15.60
2023-03-01T19:42:56.679Z,16.10
2023-03-01T19:53:21.704Z,16.00
2023-03-01T20:03:46.507Z,17.60
2023-03-01T20:14:14.067Z,17.10
2023-03-01T20:24:38.371Z,16.90
2023-03-01T20:35:03.627Z,19.80
2023-03-01T20:45:28.386Z,20.50
2023-03-01T20:55:52.612Z,25.50
2023-03-01T21:06:17.277Z,21.10
2023-03-01T21:16:45.048Z,17.40
2023-03-01T21:27:09.637Z,22.50
2023-03-01T21:37:33.853Z,19.40
2023-03-01T21:47:58.052Z,20.10
2023-03-01T21:58:22.817Z,19.60
2023-03-01T22:08:48.099Z,22.20
2023-03-01T22:19:13.609Z,17.50
2023-03-01T22:29:37.986Z,19.00
2023-03-01T22:40:02.842Z,20.70
2023-03-01T22:50:27.151Z,28.90
2023-03-01T23:00:51.352Z,24.80
2023-03-01T23:11:17.458Z,25.20
2023-03-01T23:21:45.968Z,25.60
2023-03-01T23:32:11.006Z,26.30
2023-03-01T23:42:35.244Z,40.80
2023-03-01T23:52:59.424Z,29.70
